Time;durP1;ratioP1;P1;durP2;ratioP2;P2;SDS_P1;SDS_P2;PMS_P1;PMS_P2;Temp;Humidity;BMP_temperature;BMP_pressure;BME280_temperature;BME280_humidity;BME280_pressure;Samples;Min_cycle;Max_cycle;Signal;HPM_P1;HPM_P2
2023/06/23 00:01:33;;;;;;;4.18;2.10;;;;;;;;;;5092173;28;20074;-76
2023/06/23 00:04:00;;;;;;;7.05;2.00;;;;;;;;;;5080053;28;20131;-77
2023/06/23 00:06:28;;;;;;;6.20;2.10;;;;;;;;;;5072019;28;20587;-77
2023/06/23 00:08:54;;;;;;;5.85;2.30;;;;;;;;;;5071527;28;20125;-76
2023/06/23 00:11:21;;;;;;;5.72;1.83;;;;;;;;;;5071600;28;20044;-76
2023/06/23 00:13:48;;;;;;;4.80;2.10;;;;;;;;;;5071972;28;20131;-77
2023/06/23 00:16:16;;;;;;;5.07;1.90;;;;;;;;;;5071725;28;20044;-76
2023/06/23 00:18:42;;;;;;;4.40;1.98;;;;;;;;;;5072075;28;20087;-77
2023/06/23 00:21:11;;;;;;;6.68;2.10;;;;;;;;;;5071686;28;20083;-77
2023/06/23 00:23:39;;;;;;;4.97;2.20;;;;;;;;;;5071681;28;20144;-78
2023/06/23 00:26:07;;;;;;;3.17;1.60;;;;;;;;;;5071999;28;20040;-78
2023/06/23 00:28:34;;;;;;;5.45;1.60;;;;;;;;;;5071344;28;20048;-77
2023/06/23 00:31:01;;;;;;;3.97;1.60;;;;;;;;;;5071745;28;20144;-77
2023/06/23 00:33:30;;;;;;;6.15;1.85;;;;;;;;;;5071413;28;20430;-77
2023/06/23 00:35:56;;;;;;;5.32;1.67;;;;;;;;;;5072033;28;20044;-77
2023/06/23 00:38:25;;;;;;;4.20;1.77;;;;;;;;;;5071595;28;20047;-76
2023/06/23 00:40:51;;;;;;;4.30;1.70;;;;;;;;;;5071550;28;20044;-77
2023/06/23 00:43:18;;;;;;;5.03;1.70;;;;;;;;;;5071587;28;20053;-77
2023/06/23 00:45:45;;;;;;;5.57;1.80;;;;;;;;;;5072043;28;20473;-77
2023/06/23 00:48:14;;;;;;;3.42;1.55;;;;;;;;;;5072016;28;20103;-76
2023/06/23 00:50:43;;;;;;;3.72;1.38;;;;;;;;;;5071839;28;20132;-77
2023/06/23 00:53:10;;;;;;;5.03;1.58;;;;;;;;;;5071837;28;20049;-77
2023/06/23 00:55:37;;;;;;;3.75;1.55;;;;;;;;;;5074029;28;20079;-77
2023/06/23 00:58:06;;;;;;;4.50;1.83;;;;;;;;;;5075831;28;20044;-77
2023/06/23 01:00:33;;;;;;;4.25;1.88;;;;;;;;;;5074880;28;20068;-77
2023/06/23 01:03:00;;;;;;;5.22;1.70;;;;;;;;;;5075304;28;20098;-77
2023/06/23 01:05:31;;;;;;;5.20;1.75;;;;;;;;;;5075988;28;20049;-77
2023/06/23 01:08:04;;;;;;;5.85;2.15;;;;;;;;;;5075231;28;20487;-77
2023/06/23 01:10:36;;;;;;;5.32;2.10;;;;;;;;;;5075809;28;20055;-77
2023/06/23 01:13:10;;;;;;;5.00;2.22;;;;;;;;;;5074783;28;20426;-77
2023/06/23 01:15:42;;;;;;;4.88;2.20;;;;;;;;;;5075603;28;20548;-77
2023/06/23 01:18:18;;;;;;;6.00;2.20;;;;;;;;;;5075260;28;20049;-78
2023/06/23 01:20:47;;;;;;;4.15;1.70;;;;;;;;;;5075054;28;20503;-77
2023/06/23 01:23:47;;;;;;;4.60;2.00;;;;;;;;;;5074504;28;20048;-77
2023/06/23 01:26:33;;;;;;;4.53;1.80;;;;;;;;;;5074624;28;20146;-78
2023/06/23 01:29:07;;;;;;;4.20;2.08;;;;;;;;;;5074211;28;20044;-78
2023/06/23 01:31:40;;;;;;;4.03;1.85;;;;;;;;;;5074653;28;20110;-78
2023/06/23 01:34:10;;;;;;;3.33;1.70;;;;;;;;;;5074507;28;20052;-77
2023/06/23 01:36:41;;;;;;;4.07;1.65;;;;;;;;;;5074064;28;20152;-77
2023/06/23 01:39:12;;;;;;;3.90;1.30;;;;;;;;;;5073432;28;20041;-78
2023/06/23 01:41:45;;;;;;;3.92;2.10;;;;;;;;;;5074274;28;20056;-77
2023/06/23 01:44:14;;;;;;;3.33;1.20;;;;;;;;;;5074124;28;20044;-76
2023/06/23 01:46:43;;;;;;;3.88;1.40;;;;;;;;;;5074144;28;20048;-76
2023/06/23 01:49:15;;;;;;;4.60;1.50;;;;;;;;;;5073717;28;20136;-77
2023/06/23 01:51:45;;;;;;;2.88;1.13;;;;;;;;;;5074158;28;20044;-76
2023/06/23 01:54:13;;;;;;;4.38;1.40;;;;;;;;;;5074036;28;20082;-76
2023/06/23 01:56:41;;;;;;;3.28;1.35;;;;;;;;;;5073781;28;20048;-76
2023/06/23 01:59:10;;;;;;;4.28;1.40;;;;;;;;;;5073214;28;20044;-76
2023/06/23 02:01:39;;;;;;;3.30;1.20;;;;;;;;;;5073767;28;20131;-76
2023/06/23 02:04:06;;;;;;;3.33;1.40;;;;;;;;;;5086071;28;20074;-76
2023/06/23 02:06:36;;;;;;;4.35;1.35;;;;;;;;;;5093346;28;20044;-76
2023/06/23 02:09:04;;;;;;;;;;;;;;;;;;5093796;28;20059;-76
2023/06/23 02:11:33;;;;;;;2.80;1.27;;;;;;;;;;5093466;28;19920;-75
2023/06/23 02:14:00;;;;;;;3.47;1.50;;;;;;;;;;5093311;28;20059;-76
2023/06/23 02:16:29;;;;;;;5.10;2.10;;;;;;;;;;5093222;28;20071;-76
2023/06/23 02:18:58;;;;;;;3.25;1.30;;;;;;;;;;5092821;28;20087;-76
2023/06/23 02:21:25;;;;;;;4.03;1.60;;;;;;;;;;5093454;28;20062;-76
2023/06/23 02:24:04;;;;;;;3.42;1.40;;;;;;;;;;5094079;28;20146;-77
2023/06/23 02:26:31;;;;;;;3.47;1.20;;;;;;;;;;5093590;28;20123;-76
2023/06/23 02:28:58;;;;;;;3.53;1.63;;;;;;;;;;5092719;28;20131;-77
2023/06/23 02:31:25;;;;;;;3.00;1.40;;;;;;;;;;5092981;28;20383;-76
2023/06/23 02:33:52;;;;;;;3.15;1.30;;;;;;;;;;5093094;28;20075;-77
2023/06/23 02:36:23;;;;;;;3.00;1.60;;;;;;;;;;5093214;28;20044;-76
2023/06/23 02:38:53;;;;;;;3.55;1.50;;;;;;;;;;5092648;28;20052;-77
2023/06/23 02:41:23;;;;;;;3.75;1.40;;;;;;;;;;5092726;28;20154;-76
2023/06/23 02:43:54;;;;;;;3.57;1.47;;;;;;;;;;5092640;28;20126;-76
2023/06/23 02:46:23;;;;;;;4.78;1.48;;;;;;;;;;5092721;28;20513;-75
2023/06/23 02:48:51;;;;;;;3.78;1.42;;;;;;;;;;5092842;28;20267;-76
2023/06/23 02:51:22;;;;;;;4.78;1.60;;;;;;;;;;5093842;28;20144;-77
2023/06/23 02:53:55;;;;;;;4.28;1.58;;;;;;;;;;5093329;28;20044;-76
2023/06/23 02:56:26;;;;;;;2.88;1.23;;;;;;;;;;5093107;28;20052;-76
2023/06/23 02:59:01;;;;;;;4.07;1.75;;;;;;;;;;5092772;28;20043;-77
2023/06/23 03:01:31;;;;;;;3.60;1.20;;;;;;;;;;5094296;28;20083;-76
2023/06/23 03:03:57;;;;;;;3.10;1.38;;;;;;;;;;5086136;28;20048;-75
2023/06/23 03:06:25;;;;;;;3.80;1.52;;;;;;;;;;5073990;28;20051;-76
2023/06/23 03:08:53;;;;;;;3.38;1.45;;;;;;;;;;5073443;28;20053;-76
2023/06/23 03:11:20;;;;;;;4.18;1.60;;;;;;;;;;5072965;28;20045;-76
2023/06/23 03:13:48;;;;;;;4.88;1.67;;;;;;;;;;5072485;28;20408;-77
2023/06/23 03:16:20;;;;;;;2.78;1.40;;;;;;;;;;5082414;28;20045;-76
2023/06/23 03:18:52;;;;;;;3.80;1.50;;;;;;;;;;5095826;28;20105;-79
2023/06/23 03:21:20;;;;;;;3.97;1.40;;;;;;;;;;5092106;28;20136;-76
2023/06/23 03:23:51;;;;;;;3.55;1.38;;;;;;;;;;5081557;28;20067;-76
2023/06/23 03:26:20;;;;;;;3.92;1.58;;;;;;;;;;5075685;28;20052;-76
2023/06/23 03:28:49;;;;;;;4.00;1.55;;;;;;;;;;5072948;28;20128;-76
2023/06/23 03:31:17;;;;;;;3.50;1.65;;;;;;;;;;5072836;28;20411;-76
2023/06/23 03:33:45;;;;;;;3.28;1.27;;;;;;;;;;5071851;28;20464;-76
2023/06/23 03:36:15;;;;;;;3.78;1.30;;;;;;;;;;5072639;28;20136;-76
2023/06/23 03:38:44;;;;;;;;;;;;;;;;;;5072162;28;20048;-76
2023/06/23 03:41:13;;;;;;;3.10;1.30;;;;;;;;;;5072548;28;19924;-76
2023/06/23 03:43:47;;;;;;;2.50;1.20;;;;;;;;;;5071730;28;20440;-76
2023/06/23 03:46:18;;;;;;;2.90;1.25;;;;;;;;;;5072005;28;20414;-76
2023/06/23 03:48:46;;;;;;;3.08;1.40;;;;;;;;;;5071877;28;20136;-75
2023/06/23 03:51:16;;;;;;;3.10;1.23;;;;;;;;;;5072533;28;20495;-76
2023/06/23 03:53:45;;;;;;;4.38;1.50;;;;;;;;;;5071892;28;20556;-76
2023/06/23 03:56:16;;;;;;;3.38;1.33;;;;;;;;;;5071933;28;20131;-76
2023/06/23 03:58:45;;;;;;;4.78;1.40;;;;;;;;;;5071562;28;20126;-76
2023/06/23 04:01:12;;;;;;;3.03;1.13;;;;;;;;;;5073098;28;20079;-76
2023/06/23 04:03:41;;;;;;;3.55;1.40;;;;;;;;;;5081336;28;20040;-76
2023/06/23 04:06:10;;;;;;;1.63;1.00;;;;;;;;;;5094089;28;20127;-77
2023/06/23 04:08:38;;;;;;;3.05;1.20;;;;;;;;;;5094378;28;20048;-77
2023/06/23 04:11:06;;;;;;;3.50;1.27;;;;;;;;;;5093167;28;20044;-75
2023/06/23 04:13:36;;;;;;;3.58;1.13;;;;;;;;;;5092445;28;20097;-75
2023/06/23 04:16:04;;;;;;;3.95;1.58;;;;;;;;;;5078048;28;20083;-76
2023/06/23 04:18:33;;;;;;;2.92;1.10;;;;;;;;;;5082996;28;20045;-76
2023/06/23 04:21:03;;;;;;;3.28;1.10;;;;;;;;;;5093761;28;20079;-76
2023/06/23 04:23:31;;;;;;;3.58;1.30;;;;;;;;;;5094374;28;20050;-76
2023/06/23 04:25:59;;;;;;;2.60;1.40;;;;;;;;;;5092655;28;20052;-76
2023/06/23 04:28:28;;;;;;;2.72;0.88;;;;;;;;;;5085535;28;20410;-76
2023/06/23 04:30:59;;;;;;;2.30;0.90;;;;;;;;;;5083612;28;20040;-77
2023/06/23 04:33:26;;;;;;;1.48;0.90;;;;;;;;;;5087485;28;20040;-75
2023/06/23 04:36:00;;;;;;;2.70;1.00;;;;;;;;;;5086238;28;20484;-76
2023/06/23 04:38:30;;;;;;;2.85;0.93;;;;;;;;;;5077061;28;20067;-75
2023/06/23 04:40:58;;;;;;;;;;;;;;;;;;5078405;28;20465;-76
2023/06/23 04:43:29;;;;;;;2.60;0.93;;;;;;;;;;5076546;28;19938;-76
2023/06/23 04:46:00;;;;;;;4.43;1.30;;;;;;;;;;5074984;28;20418;-75
2023/06/23 04:48:30;;;;;;;1.10;0.60;;;;;;;;;;5075078;28;20055;-76
2023/06/23 04:51:00;;;;;;;1.33;0.70;;;;;;;;;;5074754;28;20116;-77
2023/06/23 04:53:32;;;;;;;2.17;0.70;;;;;;;;;;5074497;28;20052;-76
2023/06/23 04:56:02;;;;;;;1.45;0.63;;;;;;;;;;5074915;28;20128;-76
2023/06/23 04:58:32;;;;;;;;;;;;;;;;;;5086225;28;20063;-76
2023/06/23 05:01:03;;;;;;;1.80;0.70;;;;;;;;;;5082589;28;19927;-76
2023/06/23 05:03:32;;;;;;;3.25;0.50;;;;;;;;;;5098228;22;20044;-65
2023/06/23 05:06:00;;;;;;;2.55;0.90;;;;;;;;;;5074289;28;20055;-62
2023/06/23 05:08:29;;;;;;;1.85;0.70;;;;;;;;;;5074968;28;20048;-63
2023/06/23 05:10:59;;;;;;;1.88;0.70;;;;;;;;;;5073704;28;20135;-64
2023/06/23 05:13:27;;;;;;;;;;;;;;;;;;5055827;28;20501;-64
2023/06/23 05:15:54;;;;;;;1.50;0.63;;;;;;;;;;5055004;28;19925;-64
2023/06/23 05:18:23;;;;;;;1.70;0.60;;;;;;;;;;5055181;28;20048;-64
2023/06/23 05:20:52;;;;;;;2.85;0.80;;;;;;;;;;5055084;28;20053;-64
2023/06/23 05:23:20;;;;;;;2.22;0.60;;;;;;;;;;5054899;28;20409;-64
2023/06/23 05:25:50;;;;;;;1.30;0.40;;;;;;;;;;5054953;28;20049;-64
2023/06/23 05:28:19;;;;;;;1.35;0.50;;;;;;;;;;5054831;28;20045;-64
2023/06/23 05:30:48;;;;;;;1.80;0.40;;;;;;;;;;5046682;28;20092;-64
2023/06/23 05:33:17;;;;;;;1.30;0.60;;;;;;;;;;5054447;28;20559;-64
2023/06/23 05:35:47;;;;;;;1.08;0.50;;;;;;;;;;5046533;28;20044;-63
2023/06/23 05:38:17;;;;;;;1.48;0.80;;;;;;;;;;5054490;28;20049;-63
2023/06/23 05:40:44;;;;;;;1.45;0.80;;;;;;;;;;5053257;28;20063;-63
2023/06/23 05:43:11;;;;;;;1.52;0.80;;;;;;;;;;5054369;28;20076;-63
2023/06/23 05:45:38;;;;;;;2.22;0.65;;;;;;;;;;5051623;28;20091;-63
2023/06/23 05:48:12;;;;;;;2.35;0.70;;;;;;;;;;5053741;28;20048;-63
2023/06/23 05:50:42;;;;;;;1.95;0.77;;;;;;;;;;5052443;28;20135;-63
2023/06/23 05:53:14;;;;;;;3.00;0.80;;;;;;;;;;5046513;28;20045;-64
2023/06/23 05:55:44;;;;;;;2.13;0.88;;;;;;;;;;5049045;28;20064;-66
2023/06/23 05:58:12;;;;;;;;;;;;;;;;;;5054237;28;20045;-64
2023/06/23 06:00:46;;;;;;;2.15;1.08;;;;;;;;;;5053466;28;19921;-64
2023/06/23 06:03:19;;;;;;;2.50;1.10;;;;;;;;;;5053581;28;20047;-63
2023/06/23 06:05:50;;;;;;;2.17;1.00;;;;;;;;;;5048448;28;20052;-63
2023/06/23 06:08:18;;;;;;;;;;;;;;;;;;5051581;28;20045;-63
2023/06/23 06:10:45;;;;;;;3.55;1.38;;;;;;;;;;5053576;28;19986;-63
2023/06/23 06:13:15;;;;;;;3.35;1.83;;;;;;;;;;5050373;28;20048;-63
2023/06/23 06:15:44;;;;;;;3.05;1.30;;;;;;;;;;5053489;28;20111;-63
2023/06/23 06:18:12;;;;;;;2.95;1.55;;;;;;;;;;5051395;28;20102;-63
2023/06/23 06:20:41;;;;;;;3.55;2.03;;;;;;;;;;5052869;28;20056;-63
2023/06/23 06:23:10;;;;;;;3.83;2.00;;;;;;;;;;5052808;28;20490;-63
2023/06/23 06:25:39;;;;;;;4.85;2.00;;;;;;;;;;5053083;28;20053;-64
2023/06/23 06:28:12;;;;;;;3.70;2.05;;;;;;;;;;5048940;28;20060;-64
2023/06/23 06:30:42;;;;;;;4.07;2.50;;;;;;;;;;5051914;28;20056;-64
2023/06/23 06:33:11;;;;;;;4.10;2.38;;;;;;;;;;5052773;28;20155;-64
2023/06/23 06:35:38;;;;;;;3.70;2.53;;;;;;;;;;5053457;28;20110;-64
2023/06/23 06:38:07;;;;;;;4.32;2.47;;;;;;;;;;5052630;28;20140;-64
2023/06/23 06:40:36;;;;;;;4.63;2.60;;;;;;;;;;5052256;28;20057;-64
2023/06/23 06:43:04;;;;;;;5.25;3.10;;;;;;;;;;5052594;28;20052;-64
2023/06/23 06:45:31;;;;;;;5.30;3.10;;;;;;;;;;5052431;28;20057;-64
2023/06/23 06:48:00;;;;;;;4.97;3.17;;;;;;;;;;5050910;28;20110;-64
2023/06/23 06:50:27;;;;;;;5.80;3.90;;;;;;;;;;5052036;28;20117;-64
2023/06/23 06:52:56;;;;;;;6.53;4.10;;;;;;;;;;5052195;28;20057;-64
2023/06/23 06:55:23;;;;;;;6.47;3.97;;;;;;;;;;5052466;28;20102;-64
2023/06/23 06:57:49;;;;;;;6.63;4.40;;;;;;;;;;5052054;28;20061;-64
2023/06/23 07:00:21;;;;;;;8.27;4.90;;;;;;;;;;5048925;28;20102;-63
2023/06/23 07:02:48;;;;;;;7.45;4.75;;;;;;;;;;5047214;28;20049;-63
2023/06/23 07:05:16;;;;;;;7.53;5.22;;;;;;;;;;5051764;28;20094;-64
2023/06/23 07:07:43;;;;;;;7.95;4.80;;;;;;;;;;5052346;28;20465;-64
2023/06/23 07:10:11;;;;;;;8.60;5.03;;;;;;;;;;5051198;28;20060;-63
2023/06/23 07:12:39;;;;;;;9.60;5.30;;;;;;;;;;5051660;28;20060;-63
2023/06/23 07:15:08;;;;;;;7.03;4.88;;;;;;;;;;5051827;28;20453;-63
2023/06/23 07:17:36;;;;;;;8.30;5.45;;;;;;;;;;5051653;28;20075;-63
2023/06/23 07:20:04;;;;;;;7.95;5.40;;;;;;;;;;5051549;28;20044;-63
2023/06/23 07:22:33;;;;;;;9.07;6.20;;;;;;;;;;5050414;28;20041;-65
2023/06/23 07:25:00;;;;;;;8.07;5.70;;;;;;;;;;5049749;28;20394;-63
2023/06/23 07:27:27;;;;;;;8.13;5.53;;;;;;;;;;5048479;28;20570;-64
2023/06/23 07:29:54;;;;;;;8.73;5.60;;;;;;;;;;5051120;28;20099;-64
2023/06/23 07:32:21;;;;;;;7.13;5.30;;;;;;;;;;5051833;28;20101;-64
2023/06/23 07:34:49;;;;;;;8.40;5.53;;;;;;;;;;5051935;28;20055;-64
2023/06/23 07:37:15;;;;;;;9.43;6.57;;;;;;;;;;5051697;28;20197;-64
2023/06/23 07:39:42;;;;;;;8.85;5.88;;;;;;;;;;5050841;28;20434;-66
2023/06/23 07:42:10;;;;;;;8.52;5.95;;;;;;;;;;5050966;28;20081;-67
2023/06/23 07:44:37;;;;;;;9.27;6.35;;;;;;;;;;5051039;28;20060;-65
2023/06/23 07:47:04;;;;;;;10.38;6.57;;;;;;;;;;5051221;28;20123;-66
2023/06/23 07:49:31;;;;;;;8.50;6.35;;;;;;;;;;5051495;28;20555;-66
2023/06/23 07:52:00;;;;;;;10.27;6.15;;;;;;;;;;5049863;28;20064;-63
2023/06/23 07:54:28;;;;;;;8.02;5.75;;;;;;;;;;5048610;28;20498;-62
2023/06/23 07:56:55;;;;;;;8.65;5.97;;;;;;;;;;5048705;28;20053;-63
2023/06/23 07:59:22;;;;;;;8.40;6.18;;;;;;;;;;5050129;28;20067;-63
2023/06/23 08:01:49;;;;;;;8.18;6.00;;;;;;;;;;5049496;28;20053;-63
2023/06/23 08:04:16;;;;;;;9.13;6.32;;;;;;;;;;5051589;28;20053;-63
2023/06/23 08:06:43;;;;;;;10.35;7.10;;;;;;;;;;5053745;28;20048;-63
2023/06/23 08:09:11;;;;;;;9.30;6.40;;;;;;;;;;5054158;28;20057;-63
2023/06/23 08:11:39;;;;;;;8.70;6.45;;;;;;;;;;5054328;28;20087;-63
2023/06/23 08:14:06;;;;;;;9.20;6.97;;;;;;;;;;5047537;28;20048;-63
2023/06/23 08:16:33;;;;;;;9.95;6.82;;;;;;;;;;5050100;28;20056;-63
2023/06/23 08:19:00;;;;;;;10.60;6.70;;;;;;;;;;5053619;28;20052;-63
2023/06/23 08:21:27;;;;;;;8.77;6.78;;;;;;;;;;5052646;28;20413;-63
2023/06/23 08:23:54;;;;;;;8.75;6.45;;;;;;;;;;5055342;28;20049;-63
2023/06/23 08:26:23;;;;;;;9.35;7.38;;;;;;;;;;5051719;28;20112;-63
2023/06/23 08:28:50;;;;;;;9.23;6.95;;;;;;;;;;5053244;28;20049;-63
2023/06/23 08:31:17;;;;;;;9.63;7.22;;;;;;;;;;5050049;28;20410;-62
2023/06/23 08:33:44;;;;;;;8.98;7.05;;;;;;;;;;5049736;28;20048;-63
2023/06/23 08:36:11;;;;;;;10.35;7.90;;;;;;;;;;5053678;28;20056;-62
2023/06/23 08:38:38;;;;;;;9.60;7.38;;;;;;;;;;5047062;28;20060;-63
2023/06/23 08:41:06;;;;;;;9.77;7.38;;;;;;;;;;5051089;28;20057;-63
2023/06/23 08:43:36;;;;;;;8.85;7.03;;;;;;;;;;5053147;28;20041;-62
2023/06/23 08:46:03;;;;;;;10.57;7.32;;;;;;;;;;5052024;28;20486;-63
2023/06/23 08:48:31;;;;;;;10.93;7.70;;;;;;;;;;5052929;28;20505;-63
2023/06/23 08:51:00;;;;;;;12.48;7.15;;;;;;;;;;5053183;28;20052;-62
2023/06/23 08:53:27;;;;;;;10.85;8.20;;;;;;;;;;5052913;28;20045;-63
2023/06/23 08:55:55;;;;;;;9.95;7.38;;;;;;;;;;5052961;28;20056;-63
2023/06/23 08:58:23;;;;;;;9.98;7.25;;;;;;;;;;5052394;28;20045;-62
2023/06/23 09:00:52;;;;;;;10.05;7.30;;;;;;;;;;5050456;28;20048;-63
2023/06/23 09:03:19;;;;;;;11.05;8.05;;;;;;;;;;5052195;28;20048;-63
2023/06/23 09:05:45;;;;;;;11.40;8.23;;;;;;;;;;5052848;28;20114;-63
2023/06/23 09:08:13;;;;;;;9.82;7.28;;;;;;;;;;5053100;28;20041;-63
2023/06/23 09:10:40;;;;;;;10.68;7.70;;;;;;;;;;5052579;28;20055;-63
2023/06/23 09:13:30;;;;;;;10.85;8.02;;;;;;;;;;5048572;28;20041;-62
2023/06/23 09:15:59;;;;;;;11.57;8.60;;;;;;;;;;5038314;28;20510;-63
2023/06/23 09:18:26;;;;;;;11.77;8.95;;;;;;;;;;5050040;28;20087;-63
2023/06/23 09:20:53;;;;;;;12.88;7.82;;;;;;;;;;5052210;28;20053;-63
2023/06/23 09:23:22;;;;;;;11.48;8.23;;;;;;;;;;5052158;28;20080;-63
2023/06/23 09:25:50;;;;;;;12.00;8.80;;;;;;;;;;5049027;28;20099;-63
2023/06/23 09:28:24;;;;;;;12.52;8.27;;;;;;;;;;5047623;28;20045;-63
2023/06/23 09:30:52;;;;;;;14.43;10.50;;;;;;;;;;5050316;28;20091;-63
2023/06/23 09:33:21;;;;;;;10.63;8.45;;;;;;;;;;5051622;28;20099;-64
2023/06/23 09:35:49;;;;;;;10.98;8.55;;;;;;;;;;5052254;28;20067;-63
2023/06/23 09:38:18;;;;;;;11.13;8.73;;;;;;;;;;5052307;28;20060;-64
2023/06/23 09:40:45;;;;;;;12.32;9.07;;;;;;;;;;5052622;28;20140;-64
2023/06/23 09:43:14;;;;;;;13.15;9.07;;;;;;;;;;5050803;28;20524;-63
2023/06/23 09:45:41;;;;;;;12.60;8.45;;;;;;;;;;5051598;28;20048;-64
2023/06/23 09:48:20;;;;;;;12.68;9.23;;;;;;;;;;5051712;28;20052;-64
2023/06/23 09:50:59;;;;;;;10.63;8.00;;;;;;;;;;5051652;28;20056;-64
2023/06/23 09:53:26;;;;;;;13.00;9.02;;;;;;;;;;5047814;28;20486;-63
2023/06/23 09:55:53;;;;;;;10.38;8.27;;;;;;;;;;5051911;28;20285;-63
2023/06/23 09:58:20;;;;;;;13.00;9.93;;;;;;;;;;5047108;28;20056;-64
2023/06/23 10:00:47;;;;;;;12.13;9.38;;;;;;;;;;5046757;28;20087;-63
2023/06/23 10:03:14;;;;;;;14.13;9.80;;;;;;;;;;5050721;28;20110;-62
2023/06/23 10:05:42;;;;;;;11.77;8.70;;;;;;;;;;5051543;28;20052;-63
2023/06/23 10:08:12;;;;;;;13.00;9.70;;;;;;;;;;5051537;28;20080;-63
2023/06/23 10:10:46;;;;;;;12.38;9.63;;;;;;;;;;5048908;28;20067;-62
2023/06/23 10:13:13;;;;;;;12.55;9.38;;;;;;;;;;5048809;28;20041;-63
2023/06/23 10:15:42;;;;;;;12.68;9.38;;;;;;;;;;5051727;28;20060;-63
2023/06/23 10:18:11;;;;;;;13.32;9.82;;;;;;;;;;5052854;28;20516;-64
2023/06/23 10:20:39;;;;;;;11.63;8.93;;;;;;;;;;5051220;28;20417;-64
2023/06/23 10:23:07;;;;;;;12.15;9.23;;;;;;;;;;5050808;28;20052;-63
2023/06/23 10:25:36;;;;;;;10.90;8.60;;;;;;;;;;5050944;28;20049;-64
2023/06/23 10:28:08;;;;;;;11.57;8.60;;;;;;;;;;5050804;28;20499;-63
2023/06/23 10:30:35;;;;;;;9.48;7.70;;;;;;;;;;5045363;28;20457;-63
2023/06/23 10:33:03;;;;;;;10.23;7.90;;;;;;;;;;5048609;28;20044;-63
2023/06/23 10:35:31;;;;;;;10.48;7.90;;;;;;;;;;5050891;28;20068;-64
2023/06/23 10:38:06;;;;;;;9.15;6.93;;;;;;;;;;5049708;28;20056;-63
2023/06/23 10:40:40;;;;;;;9.32;7.65;;;;;;;;;;5047711;28;20486;-64
2023/06/23 10:43:08;;;;;;;10.02;7.25;;;;;;;;;;5046087;28;20132;-63
2023/06/23 10:45:36;;;;;;;9.55;8.15;;;;;;;;;;5050805;28;20476;-63
2023/06/23 10:48:03;;;;;;;12.70;8.65;;;;;;;;;;5047382;28;20478;-64
2023/06/23 10:50:31;;;;;;;11.98;8.25;;;;;;;;;;5048465;28;20045;-63
2023/06/23 10:53:11;;;;;;;9.90;7.40;;;;;;;;;;5050253;28;20110;-64
2023/06/23 10:55:42;;;;;;;11.45;8.48;;;;;;;;;;5048598;28;20100;-64
2023/06/23 10:58:11;;;;;;;11.10;8.23;;;;;;;;;;5050712;28;20049;-64
2023/06/23 11:00:38;;;;;;;11.07;8.18;;;;;;;;;;5044014;28;20418;-64
2023/06/23 11:03:09;;;;;;;10.88;8.20;;;;;;;;;;5050499;28;20048;-63
2023/06/23 11:05:41;;;;;;;11.18;8.30;;;;;;;;;;5050447;28;20049;-64
2023/06/23 11:08:11;;;;;;;12.23;8.90;;;;;;;;;;5050807;28;20067;-63
2023/06/23 11:10:50;;;;;;;;;;;;;;;;;;5050793;28;20083;-63
2023/06/23 11:13:16;;;;;;;10.85;8.55;;;;;;;;;;5050481;28;19924;-63
2023/06/23 11:15:53;;;;;;;11.63;9.38;;;;;;;;;;5050885;28;20502;-63
2023/06/23 11:18:22;;;;;;;11.45;9.10;;;;;;;;;;5049953;28;20049;-64
2023/06/23 11:20:49;;;;;;;11.43;9.02;;;;;;;;;;5048943;28;20151;-63
2023/06/23 11:23:16;;;;;;;11.55;8.48;;;;;;;;;;5050078;28;20150;-63
2023/06/23 11:25:46;;;;;;;9.98;7.80;;;;;;;;;;5041891;28;20049;-63
2023/06/23 11:28:33;;;;;;;9.75;7.50;;;;;;;;;;5040099;28;20465;-64
2023/06/23 11:31:13;;;;;;;11.60;8.23;;;;;;;;;;5044700;28;20049;-63
2023/06/23 11:33:40;;;;;;;;;;;;;;;;;;5049048;28;20049;-64
2023/06/23 11:36:08;;;;;;;10.07;7.45;;;;;;;;;;5048908;28;19924;-65
2023/06/23 11:38:37;;;;;;;10.13;8.40;;;;;;;;;;5046866;28;20114;-65
2023/06/23 11:41:03;;;;;;;9.68;7.68;;;;;;;;;;5047868;28;20044;-64
2023/06/23 11:43:37;;;;;;;9.82;7.45;;;;;;;;;;5045521;28;20057;-63
2023/06/23 11:46:10;;;;;;;9.57;8.05;;;;;;;;;;5046227;28;20132;-64
2023/06/23 11:48:37;;;;;;;11.55;8.43;;;;;;;;;;5049022;28;20052;-64
2023/06/23 11:51:06;;;;;;;11.43;7.43;;;;;;;;;;5044874;28;20095;-63
2023/06/23 11:53:33;;;;;;;8.07;6.55;;;;;;;;;;5050009;28;20414;-63
2023/06/23 11:56:01;;;;;;;11.15;6.57;;;;;;;;;;5049628;28;20502;-63
2023/06/23 11:58:32;;;;;;;7.28;6.05;;;;;;;;;;5047938;28;20041;-63
2023/06/23 12:01:00;;;;;;;;;;;;;;;;;;5050524;28;20041;-63
2023/06/23 12:03:29;;;;;;;6.80;4.75;;;;;;;;;;5049720;28;19978;-63
2023/06/23 12:05:56;;;;;;;7.65;5.05;;;;;;;;;;5048068;28;20056;-63
2023/06/23 12:08:25;;;;;;;6.97;4.47;;;;;;;;;;5046168;28;20469;-63
2023/06/23 12:10:52;;;;;;;7.45;4.43;;;;;;;;;;5047568;28;20042;-63
2023/06/23 12:13:20;;;;;;;6.03;4.68;;;;;;;;;;5049600;28;20379;-63
2023/06/23 12:15:47;;;;;;;6.45;4.15;;;;;;;;;;5049353;28;20044;-63
2023/06/23 12:18:15;;;;;;;7.10;4.85;;;;;;;;;;5049568;28;20098;-64
2023/06/23 12:20:44;;;;;;;6.05;4.85;;;;;;;;;;5049041;28;20051;-63
2023/06/23 12:23:14;;;;;;;6.80;4.20;;;;;;;;;;5049422;28;20132;-63
2023/06/23 12:25:43;;;;;;;8.97;4.97;;;;;;;;;;5048809;28;20270;-63
2023/06/23 12:28:13;;;;;;;6.72;3.65;;;;;;;;;;5049322;28;20071;-63
2023/06/23 12:30:41;;;;;;;5.72;4.10;;;;;;;;;;5048864;28;20068;-63
2023/06/23 12:33:23;;;;;;;6.88;3.92;;;;;;;;;;5050576;28;20148;-63
2023/06/23 12:35:57;;;;;;;5.82;4.32;;;;;;;;;;5049192;28;20053;-62
2023/06/23 12:38:24;;;;;;;6.25;4.15;;;;;;;;;;5045641;28;20041;-62
2023/06/23 12:40:52;;;;;;;6.00;4.07;;;;;;;;;;5048836;28;20041;-62
2023/06/23 12:43:19;;;;;;;6.38;4.05;;;;;;;;;;5048635;28;20099;-63
2023/06/23 12:45:48;;;;;;;6.22;4.07;;;;;;;;;;5048597;28;20090;-63
2023/06/23 12:48:15;;;;;;;7.27;4.40;;;;;;;;;;5044690;28;20119;-62
2023/06/23 12:50:45;;;;;;;5.63;3.75;;;;;;;;;;5050852;28;20045;-63
2023/06/23 12:53:11;;;;;;;6.50;3.90;;;;;;;;;;5052458;28;20103;-63
2023/06/23 12:55:38;;;;;;;5.75;3.65;;;;;;;;;;5052698;28;20536;-61
2023/06/23 12:58:05;;;;;;;7.10;4.57;;;;;;;;;;5052183;28;20082;-63
2023/06/23 13:00:32;;;;;;;5.70;3.80;;;;;;;;;;5043989;28;20120;-63
2023/06/23 13:03:00;;;;;;;7.80;5.15;;;;;;;;;;5045040;28;20048;-63
2023/06/23 13:05:28;;;;;;;5.75;4.20;;;;;;;;;;5050684;28;20045;-63
2023/06/23 13:07:57;;;;;;;7.68;4.60;;;;;;;;;;5052785;28;20052;-63
2023/06/23 13:10:23;;;;;;;6.90;4.72;;;;;;;;;;5052427;28;20126;-62
2023/06/23 13:12:50;;;;;;;7.22;4.75;;;;;;;;;;5052163;28;20057;-62
2023/06/23 13:15:17;;;;;;;6.68;4.65;;;;;;;;;;5052303;28;20052;-61
2023/06/23 13:17:44;;;;;;;8.13;5.15;;;;;;;;;;5052413;28;20110;-62
2023/06/23 13:20:11;;;;;;;7.10;4.97;;;;;;;;;;5052294;28;20053;-62
2023/06/23 13:22:38;;;;;;;7.03;4.95;;;;;;;;;;5052552;28;20122;-62
2023/06/23 13:25:07;;;;;;;7.13;5.25;;;;;;;;;;5052051;28;20052;-62
2023/06/23 13:27:33;;;;;;;7.75;5.13;;;;;;;;;;5052243;28;20458;-62
2023/06/23 13:30:00;;;;;;;7.80;5.20;;;;;;;;;;5052311;28;20644;-62
2023/06/23 13:32:27;;;;;;;7.63;4.97;;;;;;;;;;5052321;28;20044;-62
2023/06/23 13:34:54;;;;;;;6.88;4.80;;;;;;;;;;5051919;28;20052;-62
2023/06/23 13:37:20;;;;;;;6.53;4.07;;;;;;;;;;5052288;28;20106;-63
2023/06/23 13:39:47;;;;;;;5.95;4.50;;;;;;;;;;5051665;28;20041;-63
2023/06/23 13:42:15;;;;;;;6.35;4.07;;;;;;;;;;5051653;28;20375;-63
2023/06/23 13:44:43;;;;;;;8.10;4.20;;;;;;;;;;5051821;28;20049;-63
2023/06/23 13:47:10;;;;;;;6.65;4.55;;;;;;;;;;5052454;28;20063;-63
2023/06/23 13:49:36;;;;;;;7.63;4.88;;;;;;;;;;5051742;28;20056;-62
2023/06/23 13:52:06;;;;;;;9.23;4.65;;;;;;;;;;5051650;28;20103;-62
2023/06/23 13:54:33;;;;;;;8.02;4.97;;;;;;;;;;5047699;28;20051;-62
2023/06/23 13:57:00;;;;;;;7.30;4.80;;;;;;;;;;5051580;28;20564;-63
2023/06/23 13:59:28;;;;;;;6.47;5.10;;;;;;;;;;5051321;28;20190;-63
2023/06/23 14:01:55;;;;;;;6.95;4.80;;;;;;;;;;5046337;28;20087;-61
2023/06/23 14:04:22;;;;;;;7.68;4.90;;;;;;;;;;5051275;28;20045;-62
2023/06/23 14:06:49;;;;;;;10.73;5.30;;;;;;;;;;5051252;28;20053;-62
2023/06/23 14:09:17;;;;;;;6.07;4.65;;;;;;;;;;5051120;28;20126;-64
2023/06/23 14:11:45;;;;;;;6.88;5.10;;;;;;;;;;5049417;28;20106;-63
2023/06/23 14:14:12;;;;;;;7.90;4.75;;;;;;;;;;5047178;28;20055;-61
2023/06/23 14:16:40;;;;;;;6.22;4.88;;;;;;;;;;5051455;28;20060;-62
2023/06/23 14:19:07;;;;;;;7.40;4.82;;;;;;;;;;5051245;28;20064;-61
2023/06/23 14:21:34;;;;;;;7.85;5.22;;;;;;;;;;5051678;28;20049;-62
2023/06/23 14:24:01;;;;;;;5.80;4.68;;;;;;;;;;5051892;28;20068;-62
2023/06/23 14:26:28;;;;;;;7.38;5.53;;;;;;;;;;5051529;28;20045;-62
2023/06/23 14:28:54;;;;;;;6.30;4.50;;;;;;;;;;5051155;28;20140;-62
2023/06/23 14:31:21;;;;;;;6.82;5.22;;;;;;;;;;5051129;28;20375;-62
2023/06/23 14:33:49;;;;;;;6.78;4.82;;;;;;;;;;5050685;28;20557;-62
2023/06/23 14:36:16;;;;;;;8.32;5.20;;;;;;;;;;5050803;28;20094;-62
2023/06/23 14:38:43;;;;;;;10.43;5.90;;;;;;;;;;5031134;28;20494;-62
2023/06/23 14:41:10;;;;;;;10.32;5.85;;;;;;;;;;5031045;28;20053;-63
2023/06/23 14:43:37;;;;;;;9.02;5.32;;;;;;;;;;5031034;28;20056;-62
2023/06/23 14:46:04;;;;;;;6.80;4.75;;;;;;;;;;5030671;28;20049;-62
2023/06/23 14:48:31;;;;;;;7.90;4.90;;;;;;;;;;5031055;28;20065;-62
2023/06/23 14:50:59;;;;;;;9.23;5.85;;;;;;;;;;5035978;28;20048;-62
2023/06/23 14:53:26;;;;;;;6.90;4.80;;;;;;;;;;5050746;28;20051;-62